| time (UTC) | temp C | wind direction | speed KPH | gust KPH | rain 1hr cm | rain 24hr cm | rain mn cm | humidity % | barometer mb |
| 20260509002554 | 17 | 192 | 0.0 | 0.0 | 0.00 | 0.00 | 0.00 | 71 | 1014.6 |
| 20260509002051 | 17 | 193 | 0.0 | 0.0 | 0.00 | 0.00 | 0.00 | 71 | 1014.7 |
| 20260509001548 | 17 | 182 | 0.0 | 0.0 | 0.00 | 0.00 | 0.00 | 70 | 1014.7 |
| 20260509001044 | 17 | 199 | 0.0 | 0.0 | 0.00 | 0.00 | 0.00 | 69 | 1014.6 |
| 20260509000542 | 18 | 192 | 0.0 | 0.0 | 0.00 | 0.00 | 0.00 | 68 | 1014.5 |
| 20260509000038 | 18 | 198 | 1.6 | 1.6 | 0.00 | 0.00 | 0.00 | 68 | 1014.3 |
| 20260508235536 | 18 | 213 | 1.6 | 4.8 | 0.00 | 0.00 | 0.00 | 67 | 1014.2 |
| 20260508235032 | 18 | 188 | 3.2 | 4.8 | 0.00 | 0.00 | 0.00 | 67 | 1014.4 |
| 20260508234530 | 18 | 179 | 0.0 | 1.6 | 0.00 | 0.00 | 0.00 | 67 | 1014.2 |
| 20260508234027 | 18 | 190 | 0.0 | 1.6 | 0.00 | 0.00 | 0.00 | 66 | 1014.3 |
| 20260508233526 | 18 | 188 | 1.6 | 1.6 | 0.00 | 0.00 | 0.00 | 67 | 1014.3 |
| 20260508233023 | 18 | 229 | 0.0 | 0.0 | 0.00 | 0.00 | 0.00 | 66 | 1014.4 |
| 20260508232520 | 18 | 205 | 3.2 | 4.8 | 0.00 | 0.00 | 0.00 | 66 | 1014.6 |
| 20260508232017 | 18 | 202 | 3.2 | 4.8 | 0.00 | 0.00 | 0.00 | 66 | 1014.6 |
| 20260508231514 | 18 | 199 | 0.0 | 0.0 | 0.00 | 0.00 | 0.00 | 65 | 1014.4 |
| 20260508231011 | 19 | 151 | 0.0 | 1.6 | 0.00 | 0.00 | 0.00 | 65 | 1014.3 |
| 20260508230508 | 19 | 188 | 1.6 | 1.6 | 0.00 | 0.00 | 0.00 | 64 | 1014.3 |
| 20260508230004 | 19 | 199 | 0.0 | 0.0 | 0.00 | 0.00 | 0.00 | 64 | 1014.3 |
| 20260508225502 | 19 | 208 | 0.0 | 1.6 | 0.00 | 0.00 | 0.00 | 63 | 1014.2 |
| 20260508224959 | 20 | 201 | 0.0 | 0.0 | 0.00 | 0.00 | 0.00 | 63 | 1014.3 |
| 20260508224456 | 20 | 200 | 0.0 | 1.6 | 0.00 | 0.00 | 0.00 | 64 | 1014.3 |
| 20260508223953 | 20 | 212 | 4.8 | 6.4 | 0.00 | 0.00 | 0.00 | 61 | 1014.6 |
| 20260508223451 | 20 | 204 | 1.6 | 1.6 | 0.00 | 0.00 | 0.00 | 61 | 1014.4 |
| 20260508222948 | 20 | 214 | 3.2 | 4.8 | 0.00 | 0.00 | 0.00 | 62 | 1014.7 |
| 20260508222446 | 20 | 153 | 3.2 | 4.8 | 0.00 | 0.00 | 0.00 | 61 | 1014.5 |
| 20260508221942 | 20 | 223 | 6.4 | 11.3 | 0.00 | 0.00 | 0.00 | 60 | 1014.4 |
| 20260508221438 | 20 | 195 | 1.6 | 1.6 | 0.00 | 0.00 | 0.00 | 60 | 1014.3 |
| 20260508220934 | 20 | 204 | 3.2 | 4.8 | 0.00 | 0.00 | 0.00 | 60 | 1014.4 |
| 20260508220431 | 20 | 216 | 4.8 | 6.4 | 0.00 | 0.00 | 0.00 | 59 | 1014.4 |
| 20260508215927 | 20 | 189 | 0.0 | 1.6 | 0.00 | 0.00 | 0.00 | 60 | 1014.3 |
| 20260508215424 | 20 | 197 | 0.0 | 0.0 | 0.00 | 0.00 | 0.00 | 59 | 1014.2 |
| 20260508214921 | 20 | 200 | 6.4 | 8.0 | 0.00 | 0.00 | 0.00 | 58 | 1014.4 |
| 20260508214419 | 20 | 202 | 1.6 | 1.6 | 0.00 | 0.00 | 0.00 | 59 | 1014.5 |
| 20260508213914 | 20 | 173 | 0.0 | 1.6 | 0.00 | 0.00 | 0.00 | 60 | 1014.6 |
| 20260508213412 | 20 | 165 | 0.0 | 0.0 | 0.00 | 0.00 | 0.00 | 59 | 1014.4 |
| 20260508212907 | 20 | 109 | 4.8 | 6.4 | 0.00 | 0.00 | 0.00 | 56 | 1014.6 |
| 20260508212404 | 20 | 168 | 0.0 | 1.6 | 0.00 | 0.00 | 0.00 | 57 | 1014.3 |
| 20260508211900 | 20 | 194 | 4.8 | 6.4 | 0.00 | 0.00 | 0.00 | 56 | 1014.6 |
| 20260508211355 | 21 | 197 | 1.6 | 1.6 | 0.00 | 0.00 | 0.00 | 58 | 1014.5 |
| 20260508210854 | 20 | 227 | 3.2 | 4.8 | 0.00 | 0.00 | 0.00 | 57 | 1014.4 |
| 20260508210350 | 21 | 146 | 6.4 | 8.0 | 0.00 | 0.00 | 0.00 | 57 | 1014.3 |
| 20260508205846 | 21 | 142 | 3.2 | 4.8 | 0.00 | 0.00 | 0.00 | 58 | 1014.4 |
| 20260508205343 | 21 | 136 | 4.8 | 6.4 | 0.00 | 0.00 | 0.00 | 55 | 1014.4 |
| 20260508204839 | 21 | 243 | 6.4 | 11.3 | 0.00 | 0.00 | 0.00 | 54 | 1014.4 |
| 20260508204336 | 21 | 221 | 6.4 | 11.3 | 0.00 | 0.00 | 0.00 | 54 | 1014.5 |
| 20260508203832 | 21 | 134 | 8.0 | 8.0 | 0.00 | 0.00 | 0.00 | 53 | 1014.3 |
| 20260508203329 | 21 | 178 | 1.6 | 1.6 | 0.00 | 0.00 | 0.00 | 55 | 1014.5 |
| 20260508202824 | 21 | 109 | 8.0 | 8.0 | 0.00 | 0.00 | 0.00 | 54 | 1014.7 |
| 20260508202322 | 21 | 176 | 3.2 | 6.4 | 0.00 | 0.00 | 0.00 | 54 | 1014.7 |
| 20260508201819 | 21 | 217 | 1.6 | 4.8 | 0.00 | 0.00 | 0.00 | 54 | 1014.7 |
| 20260508201316 | 21 | 220 | 1.6 | 4.8 | 0.00 | 0.00 | 0.00 | 55 | 1014.9 |
| 20260508200812 | 21 | 175 | 9.7 | 16.1 | 0.00 | 0.00 | 0.00 | 56 | 1015.0 |
| 20260508200309 | 21 | 264 | 8.0 | 11.3 | 0.00 | 0.00 | 0.00 | 51 | 1014.9 |
| 20260508195805 | 21 | 261 | 9.7 | 11.3 | 0.00 | 0.00 | 0.00 | 51 | 1014.9 |
| 20260508195305 | 21 | 167 | 4.8 | 6.4 | 0.00 | 0.00 | 0.00 | 52 | 1015.0 |
| 20260508194758 | 21 | 134 | 4.8 | 6.4 | 0.00 | 0.00 | 0.00 | 52 | 1015.2 |
| 20260508194255 | 21 | 118 | 8.0 | 8.0 | 0.00 | 0.00 | 0.00 | 53 | 1015.4 |
| 20260508193752 | 22 | 205 | 11.3 | 19.3 | 0.00 | 0.00 | 0.00 | 53 | 1015.0 |
| 20260508193249 | 22 | 293 | 4.8 | 6.4 | 0.00 | 0.00 | 0.00 | 49 | 1015.4 |
| 20260508192745 | 22 | 157 | 3.2 | 4.8 | 0.00 | 0.00 | 0.00 | 52 | 1015.5 |
| 20260508192242 | 22 | 198 | 4.8 | 6.4 | 0.00 | 0.00 | 0.00 | 54 | 1015.5 |
| 20260508191740 | 22 | 193 | 4.8 | 4.8 | 0.00 | 0.00 | 0.00 | 52 | 1015.5 |
| 20260508191237 | 22 | 234 | 4.8 | 4.8 | 0.00 | 0.00 | 0.00 | 51 | 1015.5 |
| 20260508190734 | 22 | 138 | 4.8 | 4.8 | 0.00 | 0.00 | 0.00 | 51 | 1015.5 |
| 20260508190229 | 21 | 155 | 0.0 | 0.0 | 0.00 | 0.00 | 0.00 | 52 | 1015.9 |
| 20260508185727 | 21 | 234 | 9.7 | 11.3 | 0.00 | 0.00 | 0.00 | 50 | 1016.1 |
| 20260508185224 | 21 | 243 | 8.0 | 11.3 | 0.00 | 0.00 | 0.00 | 52 | 1016.1 |
| 20260508184721 | 20 | 57 | 3.2 | 4.8 | 0.00 | 0.00 | 0.00 | 56 | 1016.1 |
| 20260508184218 | 20 | 118 | 8.0 | 11.3 | 0.00 | 0.00 | 0.00 | 55 | 1016.3 |
| 20260508183715 | 20 | 174 | 6.4 | 8.0 | 0.00 | 0.00 | 0.00 | 54 | 1016.4 |
| 20260508183211 | 21 | 307 | 4.8 | 6.4 | 0.00 | 0.00 | 0.00 | 51 | 1016.5 |
| 20260508182707 | 21 | 214 | 3.2 | 4.8 | 0.00 | 0.00 | 0.00 | 54 | 1016.4 |
| 20260508182204 | 21 | 130 | 4.8 | 4.8 | 0.00 | 0.00 | 0.00 | 53 | 1016.6 |
| 20260508181700 | 21 | 133 | 8.0 | 8.0 | 0.00 | 0.00 | 0.00 | 52 | 1016.5 |
| 20260508181157 | 20 | 167 | 9.7 | 16.1 | 0.00 | 0.00 | 0.00 | 54 | 1017.0 |
| 20260508180653 | 20 | 211 | 3.2 | 4.8 | 0.00 | 0.00 | 0.00 | 55 | 1016.7 |
| 20260508180151 | 20 | 152 | 3.2 | 4.8 | 0.00 | 0.00 | 0.00 | 53 | 1016.7 |
| 20260508175647 | 21 | 176 | 8.0 | 11.3 | 0.00 | 0.00 | 0.00 | 58 | 1016.7 |
| 20260508175144 | 21 | 153 | 9.7 | 11.3 | 0.00 | 0.00 | 0.00 | 51 | 1016.9 |
| 20260508174642 | 21 | 115 | 1.6 | 4.8 | 0.00 | 0.00 | 0.00 | 58 | 1016.9 |
| 20260508174138 | 20 | 166 | 3.2 | 4.8 | 0.00 | 0.00 | 0.00 | 57 | 1017.1 |
| 20260508173635 | 20 | 231 | 6.4 | 8.0 | 0.00 | 0.00 | 0.00 | 54 | 1017.0 |
| 20260508173131 | 20 | 199 | 0.0 | 1.6 | 0.00 | 0.00 | 0.00 | 54 | 1017.3 |
| 20260508172628 | 20 | 228 | 6.4 | 8.0 | 0.00 | 0.00 | 0.00 | 56 | 1017.0 |
| 20260508172125 | 20 | 256 | 11.3 | 12.9 | 0.00 | 0.00 | 0.00 | 54 | 1017.2 |
| 20260508171621 | 20 | 201 | 4.8 | 6.4 | 0.00 | 0.00 | 0.00 | 55 | 1017.3 |
| 20260508171118 | 20 | 248 | 4.8 | 6.4 | 0.00 | 0.00 | 0.00 | 57 | 1017.6 |
| 20260508170615 | 20 | 60 | 4.8 | 6.4 | 0.00 | 0.00 | 0.00 | 53 | 1017.9 |
| 20260508170113 | 20 | 111 | 1.6 | 1.6 | 0.00 | 0.00 | 0.00 | 53 | 1017.6 |
| 20260508165609 | 19 | 204 | 6.4 | 6.4 | 0.00 | 0.00 | 0.00 | 56 | 1017.6 |
| 20260508165106 | 18 | 136 | 4.8 | 6.4 | 0.00 | 0.00 | 0.00 | 56 | 1017.5 |
| 20260508164603 | 18 | 154 | 1.6 | 1.6 | 0.00 | 0.00 | 0.00 | 58 | 1017.9 |
| 20260508164100 | 18 | 254 | 4.8 | 6.4 | 0.00 | 0.00 | 0.00 | 59 | 1017.7 |
| 20260508163557 | 18 | 65 | 4.8 | 6.4 | 0.00 | 0.00 | 0.00 | 56 | 1018.0 |
| 20260508163054 | 18 | 289 | 8.0 | 12.9 | 0.00 | 0.00 | 0.00 | 59 | 1018.0 |
| 20260508162551 | 18 | 189 | 1.6 | 1.6 | 0.00 | 0.00 | 0.00 | 60 | 1018.1 |
| 20260508162048 | 19 | 252 | 6.4 | 8.0 | 0.00 | 0.00 | 0.00 | 58 | 1018.1 |
| 20260508161545 | 20 | 203 | 1.6 | 1.6 | 0.00 | 0.00 | 0.00 | 55 | 1018.1 |
| 20260508161042 | 19 | 249 | 1.6 | 1.6 | 0.00 | 0.00 | 0.00 | 55 | 1018.1 |
| 20260508160540 | 18 | 138 | 4.8 | 6.4 | 0.00 | 0.00 | 0.00 | 60 | 1018.1 |
| 20260508160037 | 20 | 137 | 12.9 | 16.1 | 0.00 | 0.00 | 0.00 | 56 | 1018.4 |
| 20260508155534 | 19 | 141 | 4.8 | 4.8 | 0.00 | 0.00 | 0.00 | 58 | 1018.5 |
| 20260508155031 | 18 | 127 | 3.2 | 4.8 | 0.00 | 0.00 | 0.00 | 54 | 1018.5 |
| 20260508154528 | 19 | 150 | 4.8 | 4.8 | 0.00 | 0.00 | 0.00 | 56 | 1018.5 |
| 20260508154025 | 18 | 117 | 8.0 | 11.3 | 0.00 | 0.00 | 0.00 | 56 | 1018.6 |
| 20260508153522 | 19 | 169 | 3.2 | 4.8 | 0.00 | 0.00 | 0.00 | 56 | 1018.7 |
| 20260508153018 | 20 | 124 | 4.8 | 6.4 | 0.00 | 0.00 | 0.00 | 56 | 1018.6 |
| 20260508152515 | 19 | 148 | 0.0 | 0.0 | 0.00 | 0.00 | 0.00 | 56 | 1018.6 |
| 20260508152011 | 18 | 227 | 4.8 | 6.4 | 0.00 | 0.00 | 0.00 | 59 | 1018.6 |
| 20260508151508 | 18 | 211 | 1.6 | 1.6 | 0.00 | 0.00 | 0.00 | 56 | 1018.5 |
| 20260508151004 | 18 | 154 | 12.9 | 17.7 | 0.00 | 0.00 | 0.00 | 59 | 1018.6 |
| 20260508150501 | 17 | 154 | 1.6 | 4.8 | 0.00 | 0.00 | 0.00 | 61 | 1018.7 |
| 20260508145956 | 18 | 68 | 8.0 | 11.3 | 0.00 | 0.00 | 0.00 | 58 | 1018.7 |
| 20260508145454 | 17 | 112 | 1.6 | 1.6 | 0.00 | 0.00 | 0.00 | 62 | 1018.7 |
| 20260508144950 | 18 | 118 | 6.4 | 8.0 | 0.00 | 0.00 | 0.00 | 62 | 1018.6 |
| 20260508144448 | 18 | 220 | 4.8 | 6.4 | 0.00 | 0.00 | 0.00 | 60 | 1018.4 |
| 20260508143945 | 18 | 126 | 8.0 | 8.0 | 0.00 | 0.00 | 0.00 | 64 | 1018.4 |
| 20260508143443 | 18 | 156 | 3.2 | 6.4 | 0.00 | 0.00 | 0.00 | 63 | 1018.7 |
| 20260508142938 | 18 | 193 | 1.6 | 4.8 | 0.00 | 0.00 | 0.00 | 62 | 1018.6 |
| 20260508142436 | 17 | 71 | 1.6 | 4.8 | 0.00 | 0.00 | 0.00 | 65 | 1018.6 |
| 20260508141932 | 17 | 167 | 1.6 | 1.6 | 0.00 | 0.00 | 0.00 | 67 | 1018.7 |
| 20260508141429 | 17 | 232 | 4.8 | 6.4 | 0.00 | 0.00 | 0.00 | 64 | 1018.6 |
| 20260508140927 | 17 | 114 | 4.8 | 6.4 | 0.00 | 0.00 | 0.00 | 64 | 1018.9 |
| 20260508140424 | 17 | 187 | 3.2 | 4.8 | 0.00 | 0.00 | 0.00 | 65 | 1018.8 |
| 20260508135919 | 17 | 117 | 4.8 | 6.4 | 0.00 | 0.00 | 0.00 | 65 | 1018.9 |
| 20260508135416 | 17 | 129 | 4.8 | 6.4 | 0.00 | 0.00 | 0.00 | 68 | 1019.0 |
| 20260508134913 | 17 | 127 | 4.8 | 4.8 | 0.00 | 0.00 | 0.00 | 64 | 1019.0 |
| 20260508134409 | 17 | 62 | 3.2 | 4.8 | 0.00 | 0.00 | 0.00 | 68 | 1019.1 |
| 20260508133906 | 16 | 138 | 3.2 | 4.8 | 0.00 | 0.00 | 0.00 | 69 | 1019.3 |
| 20260508133404 | 16 | 50 | 4.8 | 6.4 | 0.00 | 0.00 | 0.00 | 67 | 1019.0 |
| 20260508132900 | 16 | 79 | 3.2 | 4.8 | 0.00 | 0.00 | 0.00 | 67 | 1018.9 |
| 20260508132358 | 16 | 76 | 4.8 | 4.8 | 0.00 | 0.00 | 0.00 | 71 | 1018.8 |
| 20260508131855 | 16 | 73 | 3.2 | 4.8 | 0.00 | 0.00 | 0.00 | 71 | 1018.9 |
| 20260508131350 | 15 | 54 | 3.2 | 4.8 | 0.00 | 0.00 | 0.00 | 72 | 1018.6 |
| 20260508130847 | 16 | 18 | 3.2 | 4.8 | 0.00 | 0.00 | 0.00 | 73 | 1018.8 |
| 20260508130344 | 15 | 81 | 1.6 | 1.6 | 0.00 | 0.00 | 0.00 | 76 | 1018.5 |
| 20260508125840 | 15 | 85 | 3.2 | 6.4 | 0.00 | 0.00 | 0.00 | 76 | 1018.7 |
| 20260508125336 | 15 | 60 | 1.6 | 1.6 | 0.00 | 0.00 | 0.00 | 78 | 1018.6 |
| 20260508124834 | 14 | 358 | 3.2 | 4.8 | 0.00 | 0.00 | 0.00 | 79 | 1018.6 |
| 20260508124331 | 14 | 36 | 3.2 | 4.8 | 0.00 | 0.00 | 0.00 | 79 | 1018.4 |
| 20260508123829 | 13 | 87 | 1.6 | 1.6 | 0.00 | 0.00 | 0.00 | 80 | 1018.5 |
| 20260508123328 | 13 | 86 | 1.6 | 1.6 | 0.00 | 0.00 | 0.00 | 81 | 1018.4 |
| 20260508122824 | 13 | 78 | 1.6 | 4.8 | 0.00 | 0.00 | 0.00 | 83 | 1018.5 |
| 20260508122320 | 13 | 52 | 1.6 | 1.6 | 0.00 | 0.00 | 0.00 | 83 | 1018.4 |
| 20260508121818 | 13 | 1 | 4.8 | 4.8 | 0.00 | 0.00 | 0.00 | 82 | 1018.4 |
| 20260508121316 | 13 | 332 | 6.4 | 6.4 | 0.00 | 0.00 | 0.00 | 82 | 1018.3 |
| 20260508120813 | 13 | 90 | 0.0 | 1.6 | 0.00 | 0.00 | 0.00 | 81 | 1018.3 |
| 20260508120311 | 13 | 102 | 3.2 | 4.8 | 0.00 | 0.00 | 0.00 | 83 | 1018.4 |
| 20260508115808 | 12 | 73 | 0.0 | 1.6 | 0.00 | 0.00 | 0.00 | 85 | 1018.3 |
| 20260508115306 | 11 | 136 | 1.6 | 1.6 | 0.00 | 0.00 | 0.00 | 88 | 1018.2 |
| 20260508114802 | 11 | 118 | 0.0 | 1.6 | 0.00 | 0.00 | 0.00 | 88 | 1017.9 |
| 20260508114259 | 11 | 135 | 0.0 | 0.0 | 0.00 | 0.00 | 0.00 | 89 | 1017.7 |
| 20260508113755 | 11 | 135 | 0.0 | 0.0 | 0.00 | 0.00 | 0.00 | 90 | 1017.9 |
| 20260508113254 | 11 | 135 | 0.0 | 1.6 | 0.00 | 0.00 | 0.00 | 90 | 1017.8 |
| 20260508112750 | 11 | 135 | 0.0 | 0.0 | 0.00 | 0.00 | 0.00 | 90 | 1017.6 |
| 20260508112247 | 11 | 114 | 0.0 | 0.0 | 0.00 | 0.00 | 0.00 | 90 | 1017.4 |
| 20260508111743 | 11 | 2 | 0.0 | 0.0 | 0.00 | 0.00 | 0.00 | 90 | 1017.3 |
| 20260508111241 | 10 | 343 | 1.6 | 1.6 | 0.00 | 0.00 | 0.00 | 90 | 1017.1 |
| 20260508110739 | 10 | 31 | 3.2 | 4.8 | 0.00 | 0.00 | 0.00 | 90 | 1017.1 |
| 20260508110236 | 10 | 142 | 0.0 | 0.0 | 0.00 | 0.00 | 0.00 | 91 | 1017.0 |
| 20260508105735 | 10 | 141 | 0.0 | 0.0 | 0.00 | 0.00 | 0.00 | 91 | 1017.0 |
| 20260508105232 | 10 | 168 | 0.0 | 0.0 | 0.00 | 0.00 | 0.00 | 91 | 1017.0 |
| 20260508104730 | 10 | 196 | 0.0 | 0.0 | 0.00 | 0.00 | 0.00 | 91 | 1017.0 |
| 20260508104227 | 10 | 199 | 0.0 | 0.0 | 0.00 | 0.00 | 0.00 | 90 | 1016.9 |
| 20260508103724 | 10 | 208 | 0.0 | 0.0 | 0.00 | 0.00 | 0.00 | 91 | 1016.7 |
| 20260508103221 | 10 | 204 | 0.0 | 0.0 | 0.00 | 0.00 | 0.00 | 91 | 1016.6 |
| 20260508102718 | 10 | 188 | 0.0 | 0.0 | 0.00 | 0.00 | 0.00 | 91 | 1016.5 |
| 20260508102216 | 10 | 189 | 0.0 | 0.0 | 0.00 | 0.00 | 0.00 | 91 | 1016.4 |
| 20260508101713 | 10 | 193 | 0.0 | 0.0 | 0.00 | 0.00 | 0.00 | 91 | 1016.5 |
| 20260508101211 | 10 | 191 | 0.0 | 0.0 | 0.00 | 0.00 | 0.00 | 91 | 1016.3 |
| 20260508100708 | 10 | 194 | 0.0 | 0.0 | 0.00 | 0.00 | 0.00 | 91 | 1016.1 |
| 20260508100206 | 10 | 190 | 0.0 | 0.0 | 0.00 | 0.00 | 0.00 | 90 | 1016.0 |
| 20260508095702 | 10 | 190 | 0.0 | 0.0 | 0.00 | 0.00 | 0.00 | 90 | 1016.1 |
| 20260508095159 | 10 | 190 | 0.0 | 0.0 | 0.00 | 0.00 | 0.00 | 90 | 1016.0 |
| 20260508094656 | 10 | 189 | 0.0 | 0.0 | 0.00 | 0.00 | 0.00 | 90 | 1016.0 |
| 20260508094153 | 10 | 195 | 0.0 | 0.0 | 0.00 | 0.00 | 0.00 | 90 | 1015.9 |
| 20260508093650 | 10 | 178 | 0.0 | 0.0 | 0.00 | 0.00 | 0.00 | 90 | 1015.9 |
| 20260508093148 | 10 | 171 | 0.0 | 0.0 | 0.00 | 0.00 | 0.00 | 91 | 1016.0 |
| 20260508092644 | 10 | 198 | 0.0 | 0.0 | 0.00 | 0.00 | 0.00 | 91 | 1015.8 |
| 20260508092143 | 10 | 201 | 0.0 | 0.0 | 0.00 | 0.00 | 0.00 | 90 | 1015.9 |
| 20260508091640 | 10 | 295 | 3.2 | 4.8 | 0.00 | 0.00 | 0.00 | 91 | 1015.8 |
| 20260508091137 | 10 | 89 | 0.0 | 1.6 | 0.00 | 0.00 | 0.00 | 92 | 1016.0 |
| 20260508090635 | 10 | 145 | 0.0 | 0.0 | 0.00 | 0.00 | 0.00 | 94 | 1015.3 |
| 20260508090132 | 10 | 136 | 0.0 | 0.0 | 0.00 | 0.00 | 0.00 | 94 | 1015.9 |
| 20260508085628 | 10 | 147 | 0.0 | 0.0 | 0.00 | 0.00 | 0.00 | 95 | 1015.7 |
| 20260508085125 | 10 | 149 | 0.0 | 0.0 | 0.00 | 0.00 | 0.00 | 95 | 1015.9 |
| 20260508084621 | 10 | 149 | 0.0 | 0.0 | 0.00 | 0.00 | 0.00 | 94 | 1015.7 |
| 20260508084119 | 10 | 142 | 0.0 | 0.0 | 0.00 | 0.00 | 0.00 | 94 | 1015.7 |
| 20260508083616 | 10 | 149 | 0.0 | 0.0 | 0.00 | 0.00 | 0.00 | 94 | 1015.4 |
| 20260508083113 | 10 | 152 | 0.0 | 0.0 | 0.00 | 0.00 | 0.00 | 94 | 1015.5 |
| 20260508082609 | 10 | 198 | 0.0 | 0.0 | 0.00 | 0.00 | 0.00 | 94 | 1015.5 |
| 20260508082106 | 10 | 196 | 0.0 | 0.0 | 0.00 | 0.00 | 0.00 | 94 | 1015.4 |
| 20260508081604 | 10 | 178 | 0.0 | 0.0 | 0.00 | 0.00 | 0.00 | 94 | 1015.3 |
| 20260508081100 | 10 | 170 | 0.0 | 0.0 | 0.00 | 0.00 | 0.00 | 93 | 1015.5 |
| 20260508080558 | 10 | 170 | 0.0 | 0.0 | 0.00 | 0.00 | 0.00 | 93 | 1015.4 |
| 20260508080055 | 10 | 169 | 0.0 | 0.0 | 0.00 | 0.00 | 0.00 | 92 | 1015.4 |
| 20260508075551 | 10 | 170 | 0.0 | 0.0 | 0.00 | 0.00 | 0.00 | 92 | 1015.4 |
| 20260508075049 | 10 | 173 | 0.0 | 0.0 | 0.00 | 0.00 | 0.00 | 92 | 1015.4 |
| 20260508074546 | 10 | 175 | 0.0 | 0.0 | 0.00 | 0.00 | 0.00 | 92 | 1015.4 |
| 20260508074043 | 10 | 180 | 0.0 | 0.0 | 0.00 | 0.00 | 0.00 | 92 | 1015.3 |
| 20260508073540 | 10 | 181 | 0.0 | 0.0 | 0.00 | 0.00 | 0.00 | 92 | 1015.4 |
| 20260508073038 | 10 | 180 | 0.0 | 0.0 | 0.00 | 0.00 | 0.00 | 92 | 1015.2 |
| 20260508072533 | 10 | 165 | 0.0 | 0.0 | 0.00 | 0.00 | 0.00 | 91 | 1015.4 |
| 20260508072031 | 10 | 168 | 0.0 | 0.0 | 0.00 | 0.00 | 0.00 | 91 | 1015.3 |
| 20260508071529 | 11 | 180 | 0.0 | 0.0 | 0.00 | 0.00 | 0.00 | 90 | 1015.2 |
| 20260508071026 | 11 | 187 | 0.0 | 0.0 | 0.00 | 0.00 | 0.00 | 90 | 1015.1 |
| 20260508070524 | 11 | 187 | 0.0 | 0.0 | 0.00 | 0.00 | 0.00 | 89 | 1015.2 |
| 20260508070022 | 11 | 187 | 0.0 | 0.0 | 0.00 | 0.00 | 0.00 | 89 | 1014.9 |
| 20260508065519 | 11 | 187 | 0.0 | 0.0 | 0.00 | 0.00 | 0.00 | 89 | 1014.8 |
| 20260508065017 | 11 | 187 | 0.0 | 0.0 | 0.00 | 0.00 | 0.00 | 88 | 1015.1 |
| 20260508064514 | 11 | 187 | 0.0 | 0.0 | 0.00 | 0.00 | 0.00 | 89 | 1015.1 |
| 20260508064012 | 11 | 186 | 0.0 | 0.0 | 0.00 | 0.00 | 0.00 | 89 | 1014.9 |
| 20260508063509 | 11 | 186 | 0.0 | 0.0 | 0.00 | 0.00 | 0.00 | 88 | 1014.7 |
| 20260508063007 | 11 | 186 | 0.0 | 0.0 | 0.00 | 0.00 | 0.00 | 88 | 1014.9 |
| 20260508062505 | 11 | 186 | 0.0 | 0.0 | 0.00 | 0.00 | 0.00 | 88 | 1014.7 |
| 20260508062001 | 11 | 187 | 0.0 | 0.0 | 0.00 | 0.00 | 0.00 | 87 | 1014.9 |
| 20260508061459 | 11 | 186 | 0.0 | 0.0 | 0.00 | 0.00 | 0.00 | 86 | 1014.7 |
| 20260508060955 | 11 | 187 | 0.0 | 0.0 | 0.00 | 0.00 | 0.00 | 86 | 1014.8 |
| 20260508060452 | 11 | 186 | 0.0 | 0.0 | 0.00 | 0.00 | 0.00 | 86 | 1014.8 |
| 20260508055948 | 11 | 160 | 0.0 | 0.0 | 0.00 | 0.00 | 0.00 | 85 | 1015.2 |
| 20260508055446 | 11 | 147 | 0.0 | 0.0 | 0.00 | 0.00 | 0.00 | 84 | 1015.1 |
| 20260508054942 | 11 | 147 | 0.0 | 0.0 | 0.00 | 0.00 | 0.00 | 83 | 1015.2 |
| 20260508054439 | 12 | 150 | 0.0 | 0.0 | 0.00 | 0.00 | 0.00 | 82 | 1015.0 |
| 20260508053936 | 12 | 180 | 0.0 | 0.0 | 0.00 | 0.00 | 0.00 | 81 | 1015.1 |
| 20260508053433 | 12 | 180 | 0.0 | 0.0 | 0.00 | 0.00 | 0.00 | 81 | 1015.1 |
| 20260508052931 | 11 | 170 | 0.0 | 0.0 | 0.00 | 0.00 | 0.00 | 82 | 1014.8 |
| 20260508052428 | 12 | 170 | 0.0 | 0.0 | 0.00 | 0.00 | 0.00 | 81 | 1015.0 |
| 20260508051924 | 12 | 170 | 0.0 | 0.0 | 0.00 | 0.00 | 0.00 | 80 | 1015.1 |
| 20260508051420 | 12 | 170 | 0.0 | 0.0 | 0.00 | 0.00 | 0.00 | 79 | 1014.9 |
| 20260508050916 | 12 | 171 | 0.0 | 0.0 | 0.00 | 0.00 | 0.00 | 78 | 1014.8 |
| 20260508050413 | 13 | 165 | 0.0 | 0.0 | 0.00 | 0.00 | 0.00 | 76 | 1015.0 |
| 20260508045909 | 13 | 204 | 0.0 | 1.6 | 0.00 | 0.00 | 0.00 | 75 | 1014.8 |
| 20260508045407 | 13 | 209 | 0.0 | 0.0 | 0.00 | 0.00 | 0.00 | 73 | 1014.6 |
| 20260508044904 | 13 | 200 | 0.0 | 0.0 | 0.00 | 0.00 | 0.00 | 73 | 1014.3 |
| 20260508044401 | 13 | 177 | 0.0 | 0.0 | 0.00 | 0.00 | 0.00 | 73 | 1014.6 |
| 20260508043856 | 13 | 166 | 0.0 | 0.0 | 0.00 | 0.00 | 0.00 | 73 | 1014.6 |
| 20260508043354 | 13 | 78 | 0.0 | 0.0 | 0.00 | 0.00 | 0.00 | 73 | 1014.8 |
| 20260508042850 | 14 | 80 | 0.0 | 0.0 | 0.00 | 0.00 | 0.00 | 71 | 1014.6 |
| 20260508042348 | 15 | 64 | 0.0 | 0.0 | 0.00 | 0.00 | 0.00 | 70 | 1014.4 |
| 20260508041845 | 15 | 66 | 0.0 | 0.0 | 0.00 | 0.00 | 0.00 | 70 | 1014.6 |
| 20260508041341 | 14 | 25 | 0.0 | 1.6 | 0.00 | 0.00 | 0.00 | 70 | 1014.2 |
| 20260508040838 | 15 | 1 | 1.6 | 4.8 | 0.00 | 0.00 | 0.00 | 70 | 1014.4 |
| 20260508040335 | 15 | 339 | 0.0 | 1.6 | 0.00 | 0.00 | 0.00 | 69 | 1014.3 |
| 20260508035832 | 15 | 349 | 0.0 | 1.6 | 0.00 | 3.58 | 3.58 | 70 | 1014.5 |
| 20260508035330 | 14 | 358 | 0.0 | 1.6 | 0.00 | 3.58 | 3.58 | 70 | 1014.6 |
| 20260508034827 | 15 | 346 | 1.6 | 1.6 | 0.00 | 3.58 | 3.58 | 70 | 1014.7 |
| 20260508034324 | 15 | 28 | 1.6 | 1.6 | 0.00 | 3.58 | 3.58 | 70 | 1014.5 |
| 20260508033820 | 15 | 344 | 0.0 | 1.6 | 0.00 | 3.58 | 3.58 | 70 | 1014.4 |
| 20260508033319 | 15 | 341 | 3.2 | 4.8 | 0.00 | 3.58 | 3.58 | 69 | 1014.4 |
| 20260508032816 | 15 | 58 | 0.0 | 1.6 | 0.00 | 3.58 | 3.58 | 69 | 1014.4 |
| 20260508032313 | 15 | 25 | 1.6 | 1.6 | 0.00 | 3.58 | 3.58 | 69 | 1014.6 |
| 20260508031810 | 15 | 330 | 3.2 | 4.8 | 0.00 | 3.58 | 3.58 | 68 | 1014.5 |
| 20260508031306 | 15 | 331 | 3.2 | 4.8 | 0.00 | 3.58 | 3.58 | 68 | 1014.4 |
| 20260508030802 | 15 | 46 | 3.2 | 4.8 | 0.00 | 3.58 | 3.58 | 67 | 1014.2 |
| 20260508030300 | 15 | 1 | 6.4 | 6.4 | 0.00 | 3.58 | 3.58 | 67 | 1014.3 |
| 20260508025756 | 15 | 73 | 3.2 | 6.4 | 0.00 | 3.58 | 3.58 | 68 | 1014.3 |
| 20260508025254 | 15 | 62 | 4.8 | 6.4 | 0.00 | 3.58 | 3.58 | 68 | 1014.4 |
| 20260508024750 | 15 | 13 | 6.4 | 6.4 | 0.00 | 3.58 | 3.58 | 68 | 1014.1 |
| 20260508024247 | 15 | 354 | 1.6 | 1.6 | 0.00 | 3.58 | 3.58 | 68 | 1014.2 |
| 20260508023744 | 15 | 95 | 3.2 | 4.8 | 0.00 | 3.58 | 3.58 | 68 | 1014.0 |
| 20260508023241 | 15 | 317 | 3.2 | 4.8 | 0.00 | 3.58 | 3.58 | 68 | 1014.0 |
| 20260508022737 | 15 | 20 | 4.8 | 6.4 | 0.00 | 3.58 | 3.58 | 68 | 1013.7 |
| 20260508022234 | 15 | 342 | 1.6 | 1.6 | 0.00 | 3.58 | 3.58 | 69 | 1013.7 |
| 20260508021730 | 15 | 349 | 3.2 | 4.8 | 0.00 | 3.58 | 3.58 | 68 | 1013.7 |
| 20260508021226 | 15 | 74 | 1.6 | 1.6 | 0.00 | 3.58 | 3.58 | 68 | 1013.7 |
| 20260508020723 | 16 | 19 | 3.2 | 4.8 | 0.00 | 3.58 | 3.58 | 67 | 1013.8 |
| 20260508020220 | 16 | 83 | 0.0 | 0.0 | 0.00 | 3.58 | 3.58 | 68 | 1013.7 |
| 20260508015717 | 16 | 340 | 3.2 | 4.8 | 0.00 | 3.58 | 3.58 | 67 | 1013.4 |
| 20260508015215 | 16 | 25 | 0.0 | 1.6 | 0.00 | 3.58 | 3.58 | 67 | 1013.2 |
| 20260508014711 | 16 | 336 | 9.7 | 12.9 | 0.00 | 3.58 | 3.58 | 67 | 1013.0 |
| 20260508014208 | 16 | 326 | 3.2 | 6.4 | 0.00 | 3.58 | 3.58 | 68 | 1013.1 |
| 20260508013704 | 16 | 315 | 4.8 | 6.4 | 0.00 | 3.58 | 3.58 | 68 | 1012.9 |
| 20260508013200 | 16 | 31 | 4.8 | 6.4 | 0.00 | 3.58 | 3.58 | 68 | 1013.0 |
| 20260508012658 | 16 | 320 | 3.2 | 4.8 | 0.00 | 3.58 | 3.58 | 70 | 1012.9 |
| 20260508012155 | 16 | 336 | 6.4 | 8.0 | 0.00 | 3.58 | 3.58 | 69 | 1012.5 |
| 20260508011653 | 16 | 7 | 9.7 | 12.9 | 0.00 | 3.58 | 3.58 | 70 | 1012.4 |
| 20260508011150 | 16 | 26 | 6.4 | 6.4 | 0.00 | 3.58 | 3.58 | 71 | 1012.5 |
| 20260508010647 | 16 | 26 | 1.6 | 4.8 | 0.00 | 3.58 | 3.58 | 72 | 1012.4 |
| 20260508010145 | 16 | 351 | 4.8 | 4.8 | 0.00 | 3.58 | 3.58 | 72 | 1012.2 |
| 20260508005642 | 16 | 338 | 4.8 | 6.4 | 0.00 | 3.58 | 3.58 | 72 | 1012.2 |
| 20260508005138 | 16 | 354 | 8.0 | 8.0 | 0.00 | 3.58 | 3.58 | 72 | 1012.3 |
| 20260508004634 | 16 | 351 | 3.2 | 4.8 | 0.00 | 3.58 | 3.58 | 72 | 1012.1 |
| 20260508004130 | 17 | 335 | 8.0 | 8.0 | 0.00 | 3.58 | 3.58 | 72 | 1011.8 |
| 20260508003627 | 17 | 298 | 8.0 | 8.0 | 0.00 | 3.58 | 3.58 | 71 | 1011.8 |
| 20260508003125 | 17 | 342 | 8.0 | 8.0 | 0.00 | 3.58 | 3.58 | 71 | 1011.4 |